sensor_id;sensor_type;location;lat;lon;timestamp;P1;durP1;ratioP1;P2;durP2;ratioP2
22837;SDS011;11585;51.450;-0.240;2023-02-07T00:01:39;47.47;;;12.63;;
22837;SDS011;11585;51.450;-0.240;2023-02-07T00:04:05;37.25;;;10.77;;
22837;SDS011;11585;51.450;-0.240;2023-02-07T00:06:32;88.55;;;15.85;;
22837;SDS011;11585;51.450;-0.240;2023-02-07T00:09:00;262.38;;;43.28;;
22837;SDS011;11585;51.450;-0.240;2023-02-07T00:11:28;230.82;;;44.08;;
22837;SDS011;11585;51.450;-0.240;2023-02-07T00:16:38;71.90;;;20.58;;
22837;SDS011;11585;51.450;-0.240;2023-02-07T00:19:06;51.92;;;14.45;;
22837;SDS011;11585;51.450;-0.240;2023-02-07T00:21:31;39.35;;;11.57;;
22837;SDS011;11585;51.450;-0.240;2023-02-07T00:26:43;21.02;;;8.27;;
22837;SDS011;11585;51.450;-0.240;2023-02-07T00:29:11;25.48;;;9.00;;
22837;SDS011;11585;51.450;-0.240;2023-02-07T00:31:36;24.27;;;9.32;;
22837;SDS011;11585;51.450;-0.240;2023-02-07T00:36:47;22.67;;;8.27;;
22837;SDS011;11585;51.450;-0.240;2023-02-07T00:39:14;35.50;;;8.32;;
22837;SDS011;11585;51.450;-0.240;2023-02-07T00:41:40;24.48;;;8.38;;
22837;SDS011;11585;51.450;-0.240;2023-02-07T00:44:07;24.92;;;8.65;;
22837;SDS011;11585;51.450;-0.240;2023-02-07T00:46:33;27.25;;;8.45;;
22837;SDS011;11585;51.450;-0.240;2023-02-07T00:48:58;29.55;;;8.90;;
22837;SDS011;11585;51.450;-0.240;2023-02-07T00:51:25;33.65;;;9.30;;
22837;SDS011;11585;51.450;-0.240;2023-02-07T00:53:52;35.88;;;8.80;;
22837;SDS011;11585;51.450;-0.240;2023-02-07T00:56:19;34.53;;;8.93;;
22837;SDS011;11585;51.450;-0.240;2023-02-07T00:58:48;21.15;;;8.45;;
22837;SDS011;11585;51.450;-0.240;2023-02-07T01:01:13;28.55;;;8.07;;
22837;SDS011;11585;51.450;-0.240;2023-02-07T01:03:40;28.70;;;8.48;;
22837;SDS011;11585;51.450;-0.240;2023-02-07T01:06:06;19.73;;;8.00;;
22837;SDS011;11585;51.450;-0.240;2023-02-07T01:08:32;35.42;;;8.90;;
22837;SDS011;11585;51.450;-0.240;2023-02-07T01:11:02;28.73;;;8.70;;
22837;SDS011;11585;51.450;-0.240;2023-02-07T01:13:30;22.48;;;7.78;;
22837;SDS011;11585;51.450;-0.240;2023-02-07T01:15:57;25.65;;;7.43;;
22837;SDS011;11585;51.450;-0.240;2023-02-07T01:18:22;27.50;;;7.85;;
22837;SDS011;11585;51.450;-0.240;2023-02-07T01:20:48;27.05;;;7.95;;
22837;SDS011;11585;51.450;-0.240;2023-02-07T01:23:14;19.02;;;7.20;;
22837;SDS011;11585;51.450;-0.240;2023-02-07T01:25:40;28.20;;;8.07;;
22837;SDS011;11585;51.450;-0.240;2023-02-07T01:28:08;24.60;;;7.07;;
22837;SDS011;11585;51.450;-0.240;2023-02-07T01:30:34;16.63;;;6.75;;
22837;SDS011;11585;51.450;-0.240;2023-02-07T01:35:45;26.63;;;7.57;;
22837;SDS011;11585;51.450;-0.240;2023-02-07T01:38:11;27.60;;;7.20;;
22837;SDS011;11585;51.450;-0.240;2023-02-07T01:40:36;23.08;;;7.53;;
22837;SDS011;11585;51.450;-0.240;2023-02-07T01:45:49;23.38;;;7.40;;
22837;SDS011;11585;51.450;-0.240;2023-02-07T01:48:22;24.52;;;7.63;;
22837;SDS011;11585;51.450;-0.240;2023-02-07T01:50:57;18.63;;;7.18;;
22837;SDS011;11585;51.450;-0.240;2023-02-07T01:56:15;25.38;;;6.35;;
22837;SDS011;11585;51.450;-0.240;2023-02-07T01:58:41;20.15;;;6.40;;
22837;SDS011;11585;51.450;-0.240;2023-02-07T02:01:09;24.38;;;6.53;;
22837;SDS011;11585;51.450;-0.240;2023-02-07T02:03:42;18.60;;;6.68;;
22837;SDS011;11585;51.450;-0.240;2023-02-07T02:06:11;16.98;;;6.57;;
22837;SDS011;11585;51.450;-0.240;2023-02-07T02:08:37;20.25;;;6.47;;
22837;SDS011;11585;51.450;-0.240;2023-02-07T02:16:41;22.60;;;6.35;;
22837;SDS011;11585;51.450;-0.240;2023-02-07T02:36:32;24.58;;;6.65;;
22837;SDS011;11585;51.450;-0.240;2023-02-07T02:39:22;19.38;;;6.43;;
22837;SDS011;11585;51.450;-0.240;2023-02-07T02:41:57;18.55;;;6.13;;
22837;SDS011;11585;51.450;-0.240;2023-02-07T02:47:47;24.13;;;6.75;;
22837;SDS011;11585;51.450;-0.240;2023-02-07T02:50:17;28.50;;;7.18;;
22837;SDS011;11585;51.450;-0.240;2023-02-07T02:58:10;28.75;;;7.55;;
22837;SDS011;11585;51.450;-0.240;2023-02-07T03:00:47;21.13;;;6.65;;
22837;SDS011;11585;51.450;-0.240;2023-02-07T03:11:26;21.45;;;6.97;;
22837;SDS011;11585;51.450;-0.240;2023-02-07T03:19:45;21.17;;;6.15;;
22837;SDS011;11585;51.450;-0.240;2023-02-07T03:22:18;30.50;;;6.05;;
22837;SDS011;11585;51.450;-0.240;2023-02-07T03:24:50;30.15;;;7.07;;
22837;SDS011;11585;51.450;-0.240;2023-02-07T03:27:19;22.17;;;6.03;;
22837;SDS011;11585;51.450;-0.240;2023-02-07T03:29:47;24.10;;;6.40;;
22837;SDS011;11585;51.450;-0.240;2023-02-07T03:34:52;17.35;;;5.97;;
22837;SDS011;11585;51.450;-0.240;2023-02-07T03:37:28;19.35;;;6.32;;
22837;SDS011;11585;51.450;-0.240;2023-02-07T03:40:02;27.10;;;6.60;;
22837;SDS011;11585;51.450;-0.240;2023-02-07T03:42:34;22.85;;;5.95;;
22837;SDS011;11585;51.450;-0.240;2023-02-07T03:45:15;16.25;;;6.10;;
22837;SDS011;11585;51.450;-0.240;2023-02-07T03:47:42;20.92;;;6.20;;
22837;SDS011;11585;51.450;-0.240;2023-02-07T03:50:08;18.58;;;5.72;;
22837;SDS011;11585;51.450;-0.240;2023-02-07T03:55:19;29.70;;;6.35;;
22837;SDS011;11585;51.450;-0.240;2023-02-07T03:57:45;17.50;;;6.22;;
22837;SDS011;11585;51.450;-0.240;2023-02-07T04:00:11;16.30;;;5.90;;
22837;SDS011;11585;51.450;-0.240;2023-02-07T04:02:37;17.92;;;5.72;;
22837;SDS011;11585;51.450;-0.240;2023-02-07T04:05:03;19.25;;;6.05;;
22837;SDS011;11585;51.450;-0.240;2023-02-07T04:07:29;22.95;;;6.68;;
22837;SDS011;11585;51.450;-0.240;2023-02-07T04:09:55;20.42;;;6.53;;
22837;SDS011;11585;51.450;-0.240;2023-02-07T04:12:21;17.80;;;7.30;;
22837;SDS011;11585;51.450;-0.240;2023-02-07T04:14:46;27.17;;;7.55;;
22837;SDS011;11585;51.450;-0.240;2023-02-07T04:17:12;20.33;;;6.75;;
22837;SDS011;11585;51.450;-0.240;2023-02-07T04:19:37;31.45;;;10.38;;
22837;SDS011;11585;51.450;-0.240;2023-02-07T04:22:05;20.92;;;8.48;;
22837;SDS011;11585;51.450;-0.240;2023-02-07T04:24:31;20.42;;;6.15;;
22837;SDS011;11585;51.450;-0.240;2023-02-07T04:26:59;23.80;;;7.15;;
22837;SDS011;11585;51.450;-0.240;2023-02-07T04:29:25;26.17;;;7.22;;
22837;SDS011;11585;51.450;-0.240;2023-02-07T04:31:51;36.00;;;9.02;;
22837;SDS011;11585;51.450;-0.240;2023-02-07T04:34:17;24.90;;;8.38;;
22837;SDS011;11585;51.450;-0.240;2023-02-07T04:36:42;25.45;;;8.10;;
22837;SDS011;11585;51.450;-0.240;2023-02-07T04:39:08;26.05;;;8.65;;
22837;SDS011;11585;51.450;-0.240;2023-02-07T04:41:33;33.92;;;9.65;;
22837;SDS011;11585;51.450;-0.240;2023-02-07T04:43:59;34.72;;;9.38;;
22837;SDS011;11585;51.450;-0.240;2023-02-07T04:46:25;23.00;;;8.93;;
22837;SDS011;11585;51.450;-0.240;2023-02-07T04:48:52;27.13;;;8.48;;
22837;SDS011;11585;51.450;-0.240;2023-02-07T04:51:18;31.33;;;9.10;;
22837;SDS011;11585;51.450;-0.240;2023-02-07T04:53:44;26.05;;;8.65;;
22837;SDS011;11585;51.450;-0.240;2023-02-07T04:56:10;28.70;;;9.38;;
22837;SDS011;11585;51.450;-0.240;2023-02-07T04:58:38;32.58;;;8.75;;
22837;SDS011;11585;51.450;-0.240;2023-02-07T05:01:03;23.95;;;8.98;;
22837;SDS011;11585;51.450;-0.240;2023-02-07T05:03:29;27.35;;;8.82;;
22837;SDS011;11585;51.450;-0.240;2023-02-07T05:05:54;27.73;;;8.57;;
22837;SDS011;11585;51.450;-0.240;2023-02-07T05:08:20;28.50;;;8.88;;
22837;SDS011;11585;51.450;-0.240;2023-02-07T05:10:50;18.25;;;7.60;;
22837;SDS011;11585;51.450;-0.240;2023-02-07T05:13:16;30.30;;;8.10;;
22837;SDS011;11585;51.450;-0.240;2023-02-07T05:15:42;25.52;;;8.07;;
22837;SDS011;11585;51.450;-0.240;2023-02-07T05:18:07;33.03;;;9.35;;
22837;SDS011;11585;51.450;-0.240;2023-02-07T05:20:33;19.10;;;7.53;;
22837;SDS011;11585;51.450;-0.240;2023-02-07T05:22:59;20.40;;;8.57;;
22837;SDS011;11585;51.450;-0.240;2023-02-07T05:25:24;24.30;;;9.13;;
22837;SDS011;11585;51.450;-0.240;2023-02-07T05:27:50;23.02;;;8.75;;
22837;SDS011;11585;51.450;-0.240;2023-02-07T05:30:16;33.25;;;8.75;;
22837;SDS011;11585;51.450;-0.240;2023-02-07T05:36:05;24.88;;;8.48;;
22837;SDS011;11585;51.450;-0.240;2023-02-07T05:38:25;24.85;;;8.15;;
22837;SDS011;11585;51.450;-0.240;2023-02-07T05:40:51;25.80;;;8.43;;
22837;SDS011;11585;51.450;-0.240;2023-02-07T05:43:17;25.02;;;8.35;;
22837;SDS011;11585;51.450;-0.240;2023-02-07T05:45:43;23.60;;;8.30;;
22837;SDS011;11585;51.450;-0.240;2023-02-07T05:48:09;27.20;;;8.13;;
22837;SDS011;11585;51.450;-0.240;2023-02-07T05:50:36;26.77;;;8.52;;
22837;SDS011;11585;51.450;-0.240;2023-02-07T05:53:03;30.55;;;10.00;;
22837;SDS011;11585;51.450;-0.240;2023-02-07T05:55:30;28.83;;;10.57;;
22837;SDS011;11585;51.450;-0.240;2023-02-07T05:57:56;34.88;;;9.00;;
22837;SDS011;11585;51.450;-0.240;2023-02-07T06:00:22;21.77;;;8.05;;
22837;SDS011;11585;51.450;-0.240;2023-02-07T06:02:47;24.83;;;8.48;;
22837;SDS011;11585;51.450;-0.240;2023-02-07T06:05:15;21.23;;;7.82;;
22837;SDS011;11585;51.450;-0.240;2023-02-07T06:07:42;20.20;;;7.63;;
22837;SDS011;11585;51.450;-0.240;2023-02-07T06:10:09;20.80;;;8.05;;
22837;SDS011;11585;51.450;-0.240;2023-02-07T06:12:35;27.75;;;8.30;;
22837;SDS011;11585;51.450;-0.240;2023-02-07T06:15:01;25.52;;;7.25;;
22837;SDS011;11585;51.450;-0.240;2023-02-07T06:17:27;27.13;;;9.13;;
22837;SDS011;11585;51.450;-0.240;2023-02-07T06:19:53;23.27;;;8.38;;
22837;SDS011;11585;51.450;-0.240;2023-02-07T06:22:19;23.77;;;8.05;;
22837;SDS011;11585;51.450;-0.240;2023-02-07T06:24:44;29.95;;;8.18;;
22837;SDS011;11585;51.450;-0.240;2023-02-07T06:27:10;27.90;;;7.80;;
22837;SDS011;11585;51.450;-0.240;2023-02-07T06:29:36;21.95;;;8.40;;
22837;SDS011;11585;51.450;-0.240;2023-02-07T06:32:02;25.40;;;8.05;;
22837;SDS011;11585;51.450;-0.240;2023-02-07T06:34:27;22.80;;;7.88;;
22837;SDS011;11585;51.450;-0.240;2023-02-07T06:36:53;29.33;;;7.70;;
22837;SDS011;11585;51.450;-0.240;2023-02-07T06:39:22;22.67;;;9.25;;
22837;SDS011;11585;51.450;-0.240;2023-02-07T06:41:47;32.08;;;9.30;;
22837;SDS011;11585;51.450;-0.240;2023-02-07T06:44:13;25.10;;;8.55;;
22837;SDS011;11585;51.450;-0.240;2023-02-07T06:46:38;27.90;;;8.90;;
22837;SDS011;11585;51.450;-0.240;2023-02-07T06:49:04;23.45;;;9.02;;
22837;SDS011;11585;51.450;-0.240;2023-02-07T06:51:30;22.10;;;9.15;;
22837;SDS011;11585;51.450;-0.240;2023-02-07T06:53:56;31.48;;;10.32;;
22837;SDS011;11585;51.450;-0.240;2023-02-07T06:56:21;27.15;;;9.35;;
22837;SDS011;11585;51.450;-0.240;2023-02-07T06:58:47;24.67;;;10.00;;
22837;SDS011;11585;51.450;-0.240;2023-02-07T07:01:13;27.38;;;9.35;;
22837;SDS011;11585;51.450;-0.240;2023-02-07T07:03:44;34.38;;;10.00;;
22837;SDS011;11585;51.450;-0.240;2023-02-07T07:06:10;24.13;;;10.13;;
22837;SDS011;11585;51.450;-0.240;2023-02-07T07:08:35;38.90;;;10.05;;
22837;SDS011;11585;51.450;-0.240;2023-02-07T07:11:01;30.27;;;10.48;;
22837;SDS011;11585;51.450;-0.240;2023-02-07T07:16:30;40.40;;;11.40;;
22837;SDS011;11585;51.450;-0.240;2023-02-07T07:18:56;33.53;;;11.10;;
22837;SDS011;11585;51.450;-0.240;2023-02-07T07:21:21;32.92;;;10.63;;
22837;SDS011;11585;51.450;-0.240;2023-02-07T07:23:49;31.33;;;10.40;;
22837;SDS011;11585;51.450;-0.240;2023-02-07T07:26:15;37.05;;;11.20;;
22837;SDS011;11585;51.450;-0.240;2023-02-07T07:28:40;31.75;;;9.52;;
22837;SDS011;11585;51.450;-0.240;2023-02-07T07:31:06;31.17;;;10.18;;
22837;SDS011;11585;51.450;-0.240;2023-02-07T07:33:32;59.70;;;10.90;;
22837;SDS011;11585;51.450;-0.240;2023-02-07T07:35:59;31.60;;;11.68;;
22837;SDS011;11585;51.450;-0.240;2023-02-07T07:38:25;42.13;;;11.82;;
22837;SDS011;11585;51.450;-0.240;2023-02-07T07:40:51;39.85;;;12.40;;
22837;SDS011;11585;51.450;-0.240;2023-02-07T07:43:17;39.63;;;12.50;;
22837;SDS011;11585;51.450;-0.240;2023-02-07T07:45:43;36.13;;;12.85;;
22837;SDS011;11585;51.450;-0.240;2023-02-07T07:48:08;45.30;;;12.70;;
22837;SDS011;11585;51.450;-0.240;2023-02-07T07:50:34;47.28;;;14.13;;
22837;SDS011;11585;51.450;-0.240;2023-02-07T07:53:00;54.67;;;14.13;;
22837;SDS011;11585;51.450;-0.240;2023-02-07T07:55:25;34.60;;;12.07;;
22837;SDS011;11585;51.450;-0.240;2023-02-07T07:57:51;39.90;;;12.05;;
22837;SDS011;11585;51.450;-0.240;2023-02-07T08:00:17;49.30;;;12.98;;
22837;SDS011;11585;51.450;-0.240;2023-02-07T08:02:43;43.05;;;12.90;;
22837;SDS011;11585;51.450;-0.240;2023-02-07T08:05:09;41.22;;;13.07;;
22837;SDS011;11585;51.450;-0.240;2023-02-07T08:07:35;48.78;;;13.20;;
22837;SDS011;11585;51.450;-0.240;2023-02-07T08:10:01;35.53;;;12.70;;
22837;SDS011;11585;51.450;-0.240;2023-02-07T08:12:28;35.95;;;13.10;;
22837;SDS011;11585;51.450;-0.240;2023-02-07T08:14:54;34.90;;;13.55;;
22837;SDS011;11585;51.450;-0.240;2023-02-07T08:17:20;52.83;;;13.77;;
22837;SDS011;11585;51.450;-0.240;2023-02-07T08:19:45;32.83;;;13.30;;
22837;SDS011;11585;51.450;-0.240;2023-02-07T08:22:14;45.10;;;13.07;;
22837;SDS011;11585;51.450;-0.240;2023-02-07T08:24:40;31.48;;;12.00;;
22837;SDS011;11585;51.450;-0.240;2023-02-07T08:27:06;41.20;;;12.65;;
22837;SDS011;11585;51.450;-0.240;2023-02-07T08:29:32;51.92;;;12.60;;
22837;SDS011;11585;51.450;-0.240;2023-02-07T08:31:58;39.40;;;14.18;;
22837;SDS011;11585;51.450;-0.240;2023-02-07T08:34:23;38.88;;;12.40;;
22837;SDS011;11585;51.450;-0.240;2023-02-07T08:36:51;34.95;;;13.18;;
22837;SDS011;11585;51.450;-0.240;2023-02-07T08:39:17;31.33;;;12.25;;
22837;SDS011;11585;51.450;-0.240;2023-02-07T08:41:42;30.92;;;11.40;;
22837;SDS011;11585;51.450;-0.240;2023-02-07T08:44:09;43.17;;;12.32;;
22837;SDS011;11585;51.450;-0.240;2023-02-07T08:46:35;55.42;;;12.63;;
22837;SDS011;11585;51.450;-0.240;2023-02-07T08:49:01;51.60;;;11.68;;
22837;SDS011;11585;51.450;-0.240;2023-02-07T08:51:26;27.48;;;10.80;;
22837;SDS011;11585;51.450;-0.240;2023-02-07T08:53:54;42.95;;;12.20;;
22837;SDS011;11585;51.450;-0.240;2023-02-07T08:56:20;57.25;;;13.32;;
22837;SDS011;11585;51.450;-0.240;2023-02-07T08:58:46;37.80;;;12.35;;
22837;SDS011;11585;51.450;-0.240;2023-02-07T09:01:15;38.00;;;13.85;;
22837;SDS011;11585;51.450;-0.240;2023-02-07T09:03:40;51.63;;;13.90;;
22837;SDS011;11585;51.450;-0.240;2023-02-07T09:06:06;67.78;;;15.68;;
22837;SDS011;11585;51.450;-0.240;2023-02-07T09:08:32;53.45;;;14.40;;
22837;SDS011;11585;51.450;-0.240;2023-02-07T09:10:58;48.38;;;14.63;;
22837;SDS011;11585;51.450;-0.240;2023-02-07T09:13:24;43.10;;;14.02;;
22837;SDS011;11585;51.450;-0.240;2023-02-07T09:15:54;68.30;;;15.30;;
22837;SDS011;11585;51.450;-0.240;2023-02-07T09:18:24;41.33;;;15.18;;
22837;SDS011;11585;51.450;-0.240;2023-02-07T09:20:50;39.60;;;13.00;;
22837;SDS011;11585;51.450;-0.240;2023-02-07T09:23:16;41.53;;;13.63;;
22837;SDS011;11585;51.450;-0.240;2023-02-07T09:25:42;43.85;;;12.73;;
22837;SDS011;11585;51.450;-0.240;2023-02-07T09:28:08;35.47;;;13.43;;
22837;SDS011;11585;51.450;-0.240;2023-02-07T09:30:34;49.33;;;13.20;;
22837;SDS011;11585;51.450;-0.240;2023-02-07T09:33:01;45.13;;;14.10;;
22837;SDS011;11585;51.450;-0.240;2023-02-07T09:35:26;36.80;;;13.13;;
22837;SDS011;11585;51.450;-0.240;2023-02-07T09:37:52;45.15;;;13.05;;
22837;SDS011;11585;51.450;-0.240;2023-02-07T09:40:19;65.97;;;12.88;;
22837;SDS011;11585;51.450;-0.240;2023-02-07T09:45:51;45.17;;;12.52;;
22837;SDS011;11585;51.450;-0.240;2023-02-07T09:49:09;48.80;;;14.95;;
22837;SDS011;11585;51.450;-0.240;2023-02-07T09:51:16;47.72;;;14.75;;
22837;SDS011;11585;51.450;-0.240;2023-02-07T09:56:30;59.90;;;15.18;;
22837;SDS011;11585;51.450;-0.240;2023-02-07T09:59:08;61.80;;;17.25;;
22837;SDS011;11585;51.450;-0.240;2023-02-07T10:02:04;54.00;;;16.17;;
22837;SDS011;11585;51.450;-0.240;2023-02-07T10:04:42;43.90;;;15.05;;
22837;SDS011;11585;51.450;-0.240;2023-02-07T10:07:13;41.38;;;15.00;;
22837;SDS011;11585;51.450;-0.240;2023-02-07T10:09:40;76.32;;;17.10;;
22837;SDS011;11585;51.450;-0.240;2023-02-07T10:31:20;49.65;;;17.42;;
22837;SDS011;11585;51.450;-0.240;2023-02-07T10:33:54;56.17;;;18.27;;
22837;SDS011;11585;51.450;-0.240;2023-02-07T10:36:23;50.85;;;16.77;;
22837;SDS011;11585;51.450;-0.240;2023-02-07T10:41:35;72.35;;;17.77;;
22837;SDS011;11585;51.450;-0.240;2023-02-07T10:44:04;48.33;;;17.55;;
22837;SDS011;11585;51.450;-0.240;2023-02-07T10:46:33;50.10;;;17.95;;
22837;SDS011;11585;51.450;-0.240;2023-02-07T10:49:01;49.03;;;17.25;;
22837;SDS011;11585;51.450;-0.240;2023-02-07T10:51:30;53.65;;;17.88;;
22837;SDS011;11585;51.450;-0.240;2023-02-07T10:56:53;49.17;;;18.33;;
22837;SDS011;11585;51.450;-0.240;2023-02-07T11:07:40;54.70;;;19.23;;
22837;SDS011;11585;51.450;-0.240;2023-02-07T11:10:17;61.60;;;18.60;;
22837;SDS011;11585;51.450;-0.240;2023-02-07T11:12:57;56.42;;;16.88;;
22837;SDS011;11585;51.450;-0.240;2023-02-07T11:15:37;64.85;;;19.23;;
22837;SDS011;11585;51.450;-0.240;2023-02-07T11:18:22;54.00;;;18.48;;
22837;SDS011;11585;51.450;-0.240;2023-02-07T11:20:57;54.60;;;17.52;;
22837;SDS011;11585;51.450;-0.240;2023-02-07T11:23:24;51.28;;;18.80;;
22837;SDS011;11585;51.450;-0.240;2023-02-07T11:25:52;74.50;;;21.80;;
22837;SDS011;11585;51.450;-0.240;2023-02-07T11:30:46;61.38;;;19.05;;
22837;SDS011;11585;51.450;-0.240;2023-02-07T11:33:25;63.05;;;19.33;;
22837;SDS011;11585;51.450;-0.240;2023-02-07T11:38:29;61.10;;;19.35;;
22837;SDS011;11585;51.450;-0.240;2023-02-07T11:40:58;56.03;;;18.65;;
22837;SDS011;11585;51.450;-0.240;2023-02-07T11:46:38;65.85;;;20.58;;
22837;SDS011;11585;51.450;-0.240;2023-02-07T11:49:06;66.80;;;19.70;;
22837;SDS011;11585;51.450;-0.240;2023-02-07T11:51:44;56.85;;;19.95;;
22837;SDS011;11585;51.450;-0.240;2023-02-07T11:54:10;75.18;;;21.23;;
22837;SDS011;11585;51.450;-0.240;2023-02-07T11:56:38;61.13;;;18.80;;
22837;SDS011;11585;51.450;-0.240;2023-02-07T12:01:40;56.92;;;17.58;;
22837;SDS011;11585;51.450;-0.240;2023-02-07T12:04:14;57.30;;;18.40;;
22837;SDS011;11585;51.450;-0.240;2023-02-07T12:06:55;57.13;;;17.58;;
22837;SDS011;11585;51.450;-0.240;2023-02-07T12:09:38;56.28;;;18.33;;
22837;SDS011;11585;51.450;-0.240;2023-02-07T12:17:57;58.83;;;18.15;;
22837;SDS011;11585;51.450;-0.240;2023-02-07T12:20:24;60.53;;;17.58;;
22837;SDS011;11585;51.450;-0.240;2023-02-07T12:23:05;66.13;;;18.00;;
22837;SDS011;11585;51.450;-0.240;2023-02-07T12:26:29;57.33;;;16.90;;
22837;SDS011;11585;51.450;-0.240;2023-02-07T12:31:44;47.35;;;17.13;;
22837;SDS011;11585;51.450;-0.240;2023-02-07T12:36:47;45.78;;;16.90;;
22837;SDS011;11585;51.450;-0.240;2023-02-07T12:39:23;56.22;;;17.90;;
22837;SDS011;11585;51.450;-0.240;2023-02-07T12:45:45;45.40;;;15.98;;
22837;SDS011;11585;51.450;-0.240;2023-02-07T12:48:26;43.25;;;15.68;;
22837;SDS011;11585;51.450;-0.240;2023-02-07T12:51:27;52.83;;;16.95;;
22837;SDS011;11585;51.450;-0.240;2023-02-07T12:57:14;50.45;;;15.80;;
22837;SDS011;11585;51.450;-0.240;2023-02-07T13:05:24;54.17;;;19.60;;
22837;SDS011;11585;51.450;-0.240;2023-02-07T13:17:13;49.80;;;16.73;;
22837;SDS011;11585;51.450;-0.240;2023-02-07T13:22:09;44.22;;;17.27;;
22837;SDS011;11585;51.450;-0.240;2023-02-07T13:27:23;44.20;;;13.85;;
22837;SDS011;11585;51.450;-0.240;2023-02-07T13:32:23;36.85;;;11.05;;
22837;SDS011;11585;51.450;-0.240;2023-02-07T13:43:12;64.28;;;17.10;;
22837;SDS011;11585;51.450;-0.240;2023-02-07T13:46:18;43.30;;;15.43;;
22837;SDS011;11585;51.450;-0.240;2023-02-07T13:49:22;50.28;;;14.35;;
22837;SDS011;11585;51.450;-0.240;2023-02-07T13:52:27;40.45;;;12.88;;
22837;SDS011;11585;51.450;-0.240;2023-02-07T13:57:44;39.47;;;14.88;;
22837;SDS011;11585;51.450;-0.240;2023-02-07T14:00:34;50.28;;;15.50;;
22837;SDS011;11585;51.450;-0.240;2023-02-07T14:06:11;45.70;;;14.30;;
22837;SDS011;11585;51.450;-0.240;2023-02-07T14:08:41;38.03;;;13.77;;
22837;SDS011;11585;51.450;-0.240;2023-02-07T14:28:05;35.95;;;11.70;;
22837;SDS011;11585;51.450;-0.240;2023-02-07T14:30:29;26.92;;;10.90;;
22837;SDS011;11585;51.450;-0.240;2023-02-07T14:35:45;36.63;;;12.30;;
22837;SDS011;11585;51.450;-0.240;2023-02-07T14:41:35;29.23;;;10.02;;
22837;SDS011;11585;51.450;-0.240;2023-02-07T14:46:47;32.55;;;10.63;;
22837;SDS011;11585;51.450;-0.240;2023-02-07T14:54:37;29.77;;;10.83;;
22837;SDS011;11585;51.450;-0.240;2023-02-07T14:57:07;28.10;;;9.90;;
22837;SDS011;11585;51.450;-0.240;2023-02-07T15:05:30;28.88;;;9.57;;
22837;SDS011;11585;51.450;-0.240;2023-02-07T15:11:00;30.48;;;10.07;;
22837;SDS011;11585;51.450;-0.240;2023-02-07T15:18:43;34.28;;;10.05;;
22837;SDS011;11585;51.450;-0.240;2023-02-07T15:21:16;31.17;;;10.25;;
22837;SDS011;11585;51.450;-0.240;2023-02-07T15:26:42;39.78;;;10.30;;
22837;SDS011;11585;51.450;-0.240;2023-02-07T15:29:21;39.70;;;9.60;;
22837;SDS011;11585;51.450;-0.240;2023-02-07T15:31:48;26.20;;;8.55;;
22837;SDS011;11585;51.450;-0.240;2023-02-07T15:34:16;29.88;;;9.35;;
22837;SDS011;11585;51.450;-0.240;2023-02-07T15:36:46;25.58;;;9.73;;
22837;SDS011;11585;51.450;-0.240;2023-02-07T15:41:47;29.77;;;8.60;;
22837;SDS011;11585;51.450;-0.240;2023-02-07T15:44:23;32.53;;;10.20;;
22837;SDS011;11585;51.450;-0.240;2023-02-07T15:46:59;24.35;;;9.02;;
22837;SDS011;11585;51.450;-0.240;2023-02-07T15:51:58;22.92;;;8.35;;
22837;SDS011;11585;51.450;-0.240;2023-02-07T15:54:25;31.45;;;8.10;;
22837;SDS011;11585;51.450;-0.240;2023-02-07T15:56:53;24.50;;;8.52;;
22837;SDS011;11585;51.450;-0.240;2023-02-07T15:59:22;26.17;;;8.68;;
22837;SDS011;11585;51.450;-0.240;2023-02-07T16:01:53;20.58;;;8.00;;
22837;SDS011;11585;51.450;-0.240;2023-02-07T16:04:28;34.53;;;7.90;;
22837;SDS011;11585;51.450;-0.240;2023-02-07T16:09:39;30.45;;;7.82;;
22837;SDS011;11585;51.450;-0.240;2023-02-07T16:14:58;28.48;;;7.90;;
22837;SDS011;11585;51.450;-0.240;2023-02-07T16:17:35;20.33;;;7.30;;
22837;SDS011;11585;51.450;-0.240;2023-02-07T16:20:03;27.05;;;7.55;;
22837;SDS011;11585;51.450;-0.240;2023-02-07T16:22:31;26.92;;;8.38;;
22837;SDS011;11585;51.450;-0.240;2023-02-07T16:24:58;22.13;;;7.65;;
22837;SDS011;11585;51.450;-0.240;2023-02-07T16:27:27;26.98;;;7.70;;
22837;SDS011;11585;51.450;-0.240;2023-02-07T16:29:59;33.38;;;7.95;;
22837;SDS011;11585;51.450;-0.240;2023-02-07T16:32:30;30.67;;;8.25;;
22837;SDS011;11585;51.450;-0.240;2023-02-07T16:34:57;27.30;;;8.27;;
22837;SDS011;11585;51.450;-0.240;2023-02-07T16:37:24;21.60;;;6.97;;
22837;SDS011;11585;51.450;-0.240;2023-02-07T16:42:19;31.88;;;8.13;;
22837;SDS011;11585;51.450;-0.240;2023-02-07T16:44:45;26.58;;;8.20;;
22837;SDS011;11585;51.450;-0.240;2023-02-07T16:47:11;27.45;;;8.80;;
22837;SDS011;11585;51.450;-0.240;2023-02-07T16:49:37;25.02;;;8.55;;
22837;SDS011;11585;51.450;-0.240;2023-02-07T16:54:51;27.45;;;8.70;;
22837;SDS011;11585;51.450;-0.240;2023-02-07T16:57:17;33.20;;;9.10;;
22837;SDS011;11585;51.450;-0.240;2023-02-07T16:59:43;33.28;;;10.95;;
22837;SDS011;11585;51.450;-0.240;2023-02-07T17:05:30;26.27;;;8.05;;
22837;SDS011;11585;51.450;-0.240;2023-02-07T17:07:56;28.05;;;10.30;;
22837;SDS011;11585;51.450;-0.240;2023-02-07T17:10:26;29.35;;;12.48;;
22837;SDS011;11585;51.450;-0.240;2023-02-07T17:12:55;36.88;;;11.68;;
22837;SDS011;11585;51.450;-0.240;2023-02-07T17:15:23;30.40;;;13.70;;
22837;SDS011;11585;51.450;-0.240;2023-02-07T17:17:49;30.85;;;13.00;;
22837;SDS011;11585;51.450;-0.240;2023-02-07T17:20:27;30.52;;;10.45;;
22837;SDS011;11585;51.450;-0.240;2023-02-07T17:22:54;24.38;;;9.85;;
22837;SDS011;11585;51.450;-0.240;2023-02-07T17:25:22;64.68;;;24.73;;
22837;SDS011;11585;51.450;-0.240;2023-02-07T17:27:48;39.45;;;16.38;;
22837;SDS011;11585;51.450;-0.240;2023-02-07T17:30:15;22.67;;;9.20;;
22837;SDS011;11585;51.450;-0.240;2023-02-07T17:32:48;31.35;;;12.88;;
22837;SDS011;11585;51.450;-0.240;2023-02-07T17:35:13;28.15;;;10.95;;
22837;SDS011;11585;51.450;-0.240;2023-02-07T17:37:39;30.23;;;11.13;;
22837;SDS011;11585;51.450;-0.240;2023-02-07T17:40:50;36.58;;;9.68;;
22837;SDS011;11585;51.450;-0.240;2023-02-07T17:42:53;26.45;;;9.05;;
22837;SDS011;11585;51.450;-0.240;2023-02-07T17:45:20;39.42;;;13.18;;
22837;SDS011;11585;51.450;-0.240;2023-02-07T17:47:45;31.25;;;10.35;;
22837;SDS011;11585;51.450;-0.240;2023-02-07T17:50:15;28.85;;;9.43;;
22837;SDS011;11585;51.450;-0.240;2023-02-07T17:55:28;24.23;;;10.23;;
22837;SDS011;11585;51.450;-0.240;2023-02-07T17:57:55;25.75;;;9.55;;
22837;SDS011;11585;51.450;-0.240;2023-02-07T18:00:22;32.88;;;12.80;;
22837;SDS011;11585;51.450;-0.240;2023-02-07T18:05:53;29.67;;;9.15;;
22837;SDS011;11585;51.450;-0.240;2023-02-07T18:08:21;28.48;;;10.20;;
22837;SDS011;11585;51.450;-0.240;2023-02-07T18:10:47;27.45;;;9.18;;
22837;SDS011;11585;51.450;-0.240;2023-02-07T18:13:14;27.13;;;8.60;;
22837;SDS011;11585;51.450;-0.240;2023-02-07T18:15:40;30.58;;;11.52;;
22837;SDS011;11585;51.450;-0.240;2023-02-07T18:18:05;35.88;;;12.65;;
22837;SDS011;11585;51.450;-0.240;2023-02-07T18:20:33;33.23;;;12.17;;
22837;SDS011;11585;51.450;-0.240;2023-02-07T18:22:59;30.90;;;11.02;;
22837;SDS011;11585;51.450;-0.240;2023-02-07T18:25:26;31.77;;;10.18;;
22837;SDS011;11585;51.450;-0.240;2023-02-07T18:27:53;36.00;;;15.73;;
22837;SDS011;11585;51.450;-0.240;2023-02-07T18:30:26;40.40;;;13.35;;
22837;SDS011;11585;51.450;-0.240;2023-02-07T18:32:57;37.10;;;12.02;;
22837;SDS011;11585;51.450;-0.240;2023-02-07T18:35:23;25.77;;;11.20;;
22837;SDS011;11585;51.450;-0.240;2023-02-07T18:37:55;25.77;;;13.52;;